Aérodrome :
LOGIN :

S'inscrire | Disclaimer

   EN    FR    IT 

 










Légende :    VFR   VFR Marginal   IFR   IFR Intensif   IFR Très Intensif
Visi : 
Plafond : 
>= 8 km
>= 3000ft
5 à 8 km
1000 à 3000 ft
1500m à 5 km
500 à 1000 ft
800 à 1500m
200 à 500 ft
< 800m
< 200 ft
Symboles :   Orages  Brouillard  Fortes neiges  Fortes précipitations  Vent > 20 kt
SIGMETs :   Divers  Orages  Givrage  Turbulence  Onde Orograph.  Cendres Volcan.







- Altitude de l'aérodrome : 915 ft
- Code IATA : LUG


LSZA - Lugano

DERNIER METAR :
  • 171050Z VRB03KT CAVOK 26/17 Q1015 NOSIG

METARs EXPIRÉS :
  • 171020Z AUTO VRB01KT 9999 NSC 25/17 Q1015
  • 170950Z VRB02KT CAVOK 25/16 Q1016 NOSIG
  • 170920Z VRB01KT CAVOK 24/17 Q1016 NOSIG
  • 170850Z VRB02KT CAVOK 23/17 Q1016 NOSIG
  • 170820Z VRB01KT CAVOK 22/18 Q1016 NOSIG

TAF TAF LSZA
Valide du 17 à 09h jusqu'au 17 à 18h UTC


170825Z 1709/1718 VRB03KT CAVOK
PROB40
TEMPO 1715/1718 01015G25KT
ATIS : +41 22 417 40 88
Pas de NOTAMs connus pour ce terrain.



MET'MAP, la Météo Aéronautique d'un coup d'oeil ! - Copyright ORBIFLY Décembre 2007 - Disclaimer

ORBIFLY MET'MAP TEAM :

Programmation & Développement : Alexandra Zaïnal
Conception & Développement : Baudouin d'Aumeries
Co-Programmation & Développement : Marc-Olivier Méhu
Soutien technique & logistique : Manuel Goepfert

Contact : metmap@orbifly.com




SOURCES & CREDITS :

   NOAA